Aérodrome :
LOGIN :

S'inscrire | Disclaimer

   EN    FR    IT 

 










Légende :    VFR   VFR Marginal   IFR   IFR Intensif   IFR Très Intensif
Visi : 
Plafond : 
>= 8 km
>= 3000ft
5 à 8 km
1000 à 3000 ft
1500m à 5 km
500 à 1000 ft
800 à 1500m
200 à 500 ft
< 800m
< 200 ft
Symboles :   Orages  Brouillard  Fortes neiges  Fortes précipitations  Vent > 20 kt
SIGMETs :   Divers  Orages  Givrage  Turbulence  Onde Orograph.  Cendres Volcan.






- Altitude de l'aérodrome : 306 ft
- Code IATA : EMA


EGNX - Nottingham East Midlands

DERNIER METAR :
  • 180550Z 26007KT 9999 FEW025 12/10 Q1015

METARs EXPIRÉS :
  • 180520Z 27006KT CAVOK 11/10 Q1015
  • 180450Z 27006KT CAVOK 10/09 Q1014
  • 180350Z 27007KT CAVOK 09/08 Q1014
  • 180320Z 26008KT 9000 NSC 10/08 Q1014
  • 180250Z 26008KT CAVOK 10/08 Q1014
  • 180220Z 26007KT CAVOK 10/08 Q1014
  • 180150Z 27006KT CAVOK 09/08 Q1014
  • 180120Z 26007KT CAVOK 11/09 Q1014

TAF TAF EGNX
Valide du 18 à 06h jusqu'au 19 à 06h UTC


180452Z 1806/1906 27007KT 9999 SCT030
TEMPO 1814/1821 7000 SHRA
PROB30
TEMPO 1815/1820 4000 +SHRA
BECMG 1820/1823 03010KT
PROB30
TEMPO 1822/1905 BKN014
ATIS : +44 1332 852 852 (ext 3201)



MET'MAP, la Météo Aéronautique d'un coup d'oeil ! - Copyright ORBIFLY Décembre 2007 - Disclaimer

ORBIFLY MET'MAP TEAM :

Programmation & Développement : Alexandra Zaïnal
Sur une idée originale de : Baudouin d'Aumeries
Soutien technique & logistique : Manuel Goepfert
Assistance : Marc-Olivier Méhu




SOURCES & CREDITS :

   NOAA